Pagrindinis puslapis
METAR-TAF:

METAR-TAF

Oro uostai :

East Jakarta, Indonezija

platuma: 06-15-59S, ilguma: 106-53-28E, Aukštis: 25 m

Dabartinis oras

Ataskaita buvo paskelbta 25 minutes, ne 09:00 UTC
Vėjas 6 kt iš Vakarų
Temperatūra 30°C
Drėgmė 70%
Slėgis 1005 hPa
Matomumas: 5000 m
Išsisklaidę debesys ne aukštis 2000 ft
migla

METAR: WIHH 170900Z 28006KT 5000 HZ SCT020 30/24 Q1005 NOSIG

Laikas: 16:25 (09:25 UTC)

Prognozė

Ataskaita buvo paskelbta 4 valandos ir 25 minutes, ne 05:00 UTC
Prognozė galioja nuo 17 metu 06 UTC su 18 metu 06 UTC
Vėjas 10 kt iš Vakarų
Matomumas: 7000 m
Išsisklaidę debesys ne aukštis 2000 ft
Laikinai
nuo 17 metu 09 UTC su 17 metu 12 UTC
Matomumas: 4000 m
Su prošvaistėmis ne aukštis 1800 ft
lietus
Tapsmas
nuo 17 metu 14 UTC su 17 metu 16 UTC
Vėjas 5 kt iš Vakarų/Pietvakarių
Matomumas: 5000 m
migla

TAF: WIHH 170500Z 1706/1806 28010KT 7000 SCT020 TEMPO 1709/1712 4000 -RA BKN018 BECMG 1714/1716 24005KT 5000 HZ

Orai ataskaitas ir orų prognozės (METAR, TAF).

turimą stotys yra geltonos ir raudonos taškus žemėlapyje.

Perkelti pele per norėdami pamatyti stoties vardą.

Tada spustelėkite, norėdami matyti oro stebėjimo ir prognozės.

Norėdami pakeisti žemėlapį: spustelėkite ant žalios mygtukų su juodo kryžiaus žemyn,; žalią mygtuką su brūkšneliu, jei norite nutolinti; arba žalių rodyklių gretimoms žemėlapius.


METAR-TAF: